sensor_id;sensor_type;location;lat;lon;timestamp;pressure;altitude;pressure_sealevel;temperature;humidity
48892;BME280;50130;52.150;5.236;2022-11-15T00:00:16;100643.0;;;8.57;93.13
48892;BME280;50130;52.150;5.236;2022-11-15T00:01:53;100643.0;;;8.56;93.23
48892;BME280;50130;52.150;5.236;2022-11-15T00:03:29;100646.0;;;8.55;93.95
48892;BME280;50130;52.150;5.236;2022-11-15T00:06:42;100638.0;;;8.48;94.52
48892;BME280;50130;52.150;5.236;2022-11-15T00:08:18;100635.0;;;8.56;94.46
48892;BME280;50130;52.150;5.236;2022-11-15T00:09:55;100637.0;;;8.72;93.83
48892;BME280;50130;52.150;5.236;2022-11-15T00:11:31;100630.0;;;8.64;93.88
48892;BME280;50130;52.150;5.236;2022-11-15T00:14:46;100632.0;;;8.73;93.58
48892;BME280;50130;52.150;5.236;2022-11-15T00:16:22;100630.0;;;8.65;93.96
48892;BME280;50130;52.150;5.236;2022-11-15T00:17:59;100638.0;;;8.73;93.85
48892;BME280;50130;52.150;5.236;2022-11-15T00:21:13;100637.0;;;8.73;94.05
48892;BME280;50130;52.150;5.236;2022-11-15T00:22:52;100630.0;;;8.73;93.74
48892;BME280;50130;52.150;5.236;2022-11-15T00:24:28;100623.0;;;8.82;93.73
48892;BME280;50130;52.150;5.236;2022-11-15T00:27:41;100625.0;;;8.85;93.65
48892;BME280;50130;52.150;5.236;2022-11-15T00:29:17;100626.0;;;8.75;94.21
48892;BME280;50130;52.150;5.236;2022-11-15T00:30:54;100626.0;;;8.8;94.4
48892;BME280;50130;52.150;5.236;2022-11-15T00:32:34;100628.0;;;8.69;95.01
48892;BME280;50130;52.150;5.236;2022-11-15T00:35:47;100625.0;;;8.74;94.89
48892;BME280;50130;52.150;5.236;2022-11-15T00:37:23;100625.0;;;8.61;95.7
48892;BME280;50130;52.150;5.236;2022-11-15T00:38:59;100624.0;;;8.72;95.74
48892;BME280;50130;52.150;5.236;2022-11-15T00:42:11;100626.0;;;8.68;95.64
48892;BME280;50130;52.150;5.236;2022-11-15T00:43:47;100627.0;;;8.68;96.09
48892;BME280;50130;52.150;5.236;2022-11-15T00:45:24;100621.0;;;8.67;96.36
48892;BME280;50130;52.150;5.236;2022-11-15T00:48:37;100613.0;;;8.69;96.48
48892;BME280;50130;52.150;5.236;2022-11-15T00:50:13;100609.0;;;8.81;95.94
48892;BME280;50130;52.150;5.236;2022-11-15T00:51:50;100602.0;;;8.8;95.97
48892;BME280;50130;52.150;5.236;2022-11-15T00:53:27;100602.0;;;8.85;95.96
48892;BME280;50130;52.150;5.236;2022-11-15T00:56:40;100603.0;;;8.89;95.82
48892;BME280;50130;52.150;5.236;2022-11-15T00:58:16;100605.0;;;8.96;95.67
48892;BME280;50130;52.150;5.236;2022-11-15T00:59:52;100603.0;;;8.85;96.07
48892;BME280;50130;52.150;5.236;2022-11-15T01:03:05;100602.0;;;8.75;96.76
48892;BME280;50130;52.150;5.236;2022-11-15T01:04:41;100595.0;;;8.85;96.64
48892;BME280;50130;52.150;5.236;2022-11-15T01:06:17;100600.0;;;8.91;96.47
48892;BME280;50130;52.150;5.236;2022-11-15T01:09:31;100595.0;;;8.86;96.68
48892;BME280;50130;52.150;5.236;2022-11-15T01:11:10;100595.0;;;8.93;96.5
48892;BME280;50130;52.150;5.236;2022-11-15T01:12:47;100593.0;;;8.91;96.78
48892;BME280;50130;52.150;5.236;2022-11-15T01:14:23;100589.0;;;8.9;97.11
48892;BME280;50130;52.150;5.236;2022-11-15T01:17:41;100588.0;;;8.81;97.72
48892;BME280;50130;52.150;5.236;2022-11-15T01:19:17;100592.0;;;8.98;97.29
48892;BME280;50130;52.150;5.236;2022-11-15T01:20:53;100592.0;;;9.01;97.12
48892;BME280;50130;52.150;5.236;2022-11-15T01:24:06;100589.0;;;9.03;97.35
48892;BME280;50130;52.150;5.236;2022-11-15T01:25:44;100586.0;;;9.11;97.11
48892;BME280;50130;52.150;5.236;2022-11-15T01:27:20;100589.0;;;9.08;97.2
48892;BME280;50130;52.150;5.236;2022-11-15T01:28:56;100589.0;;;9.21;97.33
48892;BME280;50130;52.150;5.236;2022-11-15T01:32:08;100589.0;;;9.17;97.34
48892;BME280;50130;52.150;5.236;2022-11-15T01:33:45;100590.0;;;9.14;97.93
48892;BME280;50130;52.150;5.236;2022-11-15T01:35:23;100587.0;;;9.18;97.78
48892;BME280;50130;52.150;5.236;2022-11-15T01:38:36;100586.0;;;9.31;97.23
48892;BME280;50130;52.150;5.236;2022-11-15T01:40:13;100580.0;;;9.23;97.66
48892;BME280;50130;52.150;5.236;2022-11-15T01:41:50;100577.0;;;9.31;97.59
48892;BME280;50130;52.150;5.236;2022-11-15T01:45:13;100581.0;;;9.32;97.75
48892;BME280;50130;52.150;5.236;2022-11-15T01:46:51;100574.0;;;9.31;97.92
48892;BME280;50130;52.150;5.236;2022-11-15T01:48:31;100574.0;;;9.34;97.79
48892;BME280;50130;52.150;5.236;2022-11-15T01:50:10;100567.0;;;9.36;97.96
48892;BME280;50130;52.150;5.236;2022-11-15T01:53:29;100559.0;;;9.38;97.9
48892;BME280;50130;52.150;5.236;2022-11-15T01:55:09;100561.0;;;9.39;98.38
48892;BME280;50130;52.150;5.236;2022-11-15T01:56:51;100562.0;;;9.52;97.87
48892;BME280;50130;52.150;5.236;2022-11-15T01:58:30;100561.0;;;9.47;98.28
48892;BME280;50130;52.150;5.236;2022-11-15T02:01:46;100563.0;;;9.44;98.29
48892;BME280;50130;52.150;5.236;2022-11-15T02:03:26;100565.0;;;9.55;98.34
48892;BME280;50130;52.150;5.236;2022-11-15T02:05:09;100561.0;;;9.59;98.36
48892;BME280;50130;52.150;5.236;2022-11-15T02:06:46;100565.0;;;9.64;98.13
48892;BME280;50130;52.150;5.236;2022-11-15T02:10:04;100559.0;;;9.65;98.01
48892;BME280;50130;52.150;5.236;2022-11-15T02:11:46;100553.0;;;9.64;98.22
48892;BME280;50130;52.150;5.236;2022-11-15T02:13:24;100540.0;;;9.61;98.76
48892;BME280;50130;52.150;5.236;2022-11-15T02:15:01;100543.0;;;9.67;98.47
48892;BME280;50130;52.150;5.236;2022-11-15T02:18:35;100533.0;;;9.64;99.07
48892;BME280;50130;52.150;5.236;2022-11-15T02:20:30;100534.0;;;9.68;98.72
48892;BME280;50130;52.150;5.236;2022-11-15T02:22:39;100534.0;;;9.72;98.76
48892;BME280;50130;52.150;5.236;2022-11-15T02:24:44;100527.0;;;9.73;98.8
48892;BME280;50130;52.150;5.236;2022-11-15T02:26:48;100528.0;;;9.74;98.63
48892;BME280;50130;52.150;5.236;2022-11-15T02:28:49;100523.0;;;9.74;98.93
48892;BME280;50130;52.150;5.236;2022-11-15T02:30:38;100522.0;;;9.84;98.84
48892;BME280;50130;52.150;5.236;2022-11-15T02:32:20;100517.0;;;9.72;99.4
48892;BME280;50130;52.150;5.236;2022-11-15T02:34:05;100512.0;;;9.8;99.35
48892;BME280;50130;52.150;5.236;2022-11-15T02:37:42;100513.0;;;9.84;99.48
48892;BME280;50130;52.150;5.236;2022-11-15T02:39:27;100507.0;;;9.89;98.96
48892;BME280;50130;52.150;5.236;2022-11-15T02:41:09;100505.0;;;9.92;99.06
48892;BME280;50130;52.150;5.236;2022-11-15T02:44:09;100506.0;;;9.89;99.22
48892;BME280;50130;52.150;5.236;2022-11-15T02:45:51;100500.0;;;9.93;99.15
48892;BME280;50130;52.150;5.236;2022-11-15T02:47:36;100495.0;;;10.03;99.01
48892;BME280;50130;52.150;5.236;2022-11-15T02:49:18;100488.0;;;10.03;99.0
48892;BME280;50130;52.150;5.236;2022-11-15T02:54:12;100485.0;;;10.13;98.7
48892;BME280;50130;52.150;5.236;2022-11-15T02:55:51;100487.0;;;10.23;98.34
48892;BME280;50130;52.150;5.236;2022-11-15T02:57:39;100481.0;;;10.21;98.86
48892;BME280;50130;52.150;5.236;2022-11-15T02:59:37;100476.0;;;10.16;99.04
48892;BME280;50130;52.150;5.236;2022-11-15T03:01:38;100477.0;;;10.26;98.81
48892;BME280;50130;52.150;5.236;2022-11-15T03:03:31;100480.0;;;10.24;98.8
48892;BME280;50130;52.150;5.236;2022-11-15T03:05:20;100475.0;;;10.22;98.83
48892;BME280;50130;52.150;5.236;2022-11-15T03:08:56;100478.0;;;10.22;98.97
48892;BME280;50130;52.150;5.236;2022-11-15T03:10:42;100478.0;;;10.21;99.62
48892;BME280;50130;52.150;5.236;2022-11-15T03:14:14;100485.0;;;10.43;98.93
48892;BME280;50130;52.150;5.236;2022-11-15T03:16:02;100484.0;;;10.43;98.72
48892;BME280;50130;52.150;5.236;2022-11-15T03:17:45;100484.0;;;10.41;99.02
48892;BME280;50130;52.150;5.236;2022-11-15T03:21:12;100486.0;;;10.43;98.75
48892;BME280;50130;52.150;5.236;2022-11-15T03:22:51;100481.0;;;10.44;98.81
48892;BME280;50130;52.150;5.236;2022-11-15T03:24:31;100484.0;;;10.54;98.62
48892;BME280;50130;52.150;5.236;2022-11-15T03:26:14;100487.0;;;10.64;98.13
48892;BME280;50130;52.150;5.236;2022-11-15T03:29:36;100482.0;;;10.57;98.43
48892;BME280;50130;52.150;5.236;2022-11-15T03:31:49;100481.0;;;10.67;98.19
48892;BME280;50130;52.150;5.236;2022-11-15T03:34:02;100483.0;;;10.72;97.71
48892;BME280;50130;52.150;5.236;2022-11-15T03:35:44;100485.0;;;10.66;98.33
48892;BME280;50130;52.150;5.236;2022-11-15T03:37:22;100486.0;;;10.65;98.77
48892;BME280;50130;52.150;5.236;2022-11-15T03:39:06;100486.0;;;10.6;99.16
48892;BME280;50130;52.150;5.236;2022-11-15T03:40:47;100491.0;;;10.66;99.2
48892;BME280;50130;52.150;5.236;2022-11-15T03:44:17;100488.0;;;10.64;99.34
48892;BME280;50130;52.150;5.236;2022-11-15T03:46:00;100489.0;;;10.73;99.18
48892;BME280;50130;52.150;5.236;2022-11-15T03:47:40;100487.0;;;10.72;99.2
48892;BME280;50130;52.150;5.236;2022-11-15T03:49:22;100494.0;;;10.8;99.17
48892;BME280;50130;52.150;5.236;2022-11-15T03:52:41;100490.0;;;10.76;99.49
48892;BME280;50130;52.150;5.236;2022-11-15T03:54:18;100484.0;;;10.77;99.71
48892;BME280;50130;52.150;5.236;2022-11-15T03:55:54;100484.0;;;10.91;99.08
48892;BME280;50130;52.150;5.236;2022-11-15T03:57:31;100480.0;;;10.89;99.32
48892;BME280;50130;52.150;5.236;2022-11-15T04:00:43;100476.0;;;10.85;99.42
48892;BME280;50130;52.150;5.236;2022-11-15T04:02:19;100476.0;;;10.88;99.1
48892;BME280;50130;52.150;5.236;2022-11-15T04:03:55;100478.0;;;10.88;99.65
48892;BME280;50130;52.150;5.236;2022-11-15T04:07:07;100480.0;;;10.97;99.52
48892;BME280;50130;52.150;5.236;2022-11-15T04:08:43;100484.0;;;10.99;99.71
48892;BME280;50130;52.150;5.236;2022-11-15T04:10:19;100477.0;;;10.95;100.0
48892;BME280;50130;52.150;5.236;2022-11-15T04:13:32;100471.0;;;10.93;100.0
48892;BME280;50130;52.150;5.236;2022-11-15T04:15:11;100471.0;;;11.06;100.0
48892;BME280;50130;52.150;5.236;2022-11-15T04:16:47;100475.0;;;11.09;99.98
48892;BME280;50130;52.150;5.236;2022-11-15T04:18:24;100469.0;;;11.21;99.47
48892;BME280;50130;52.150;5.236;2022-11-15T04:24:14;100467.0;;;11.26;99.31
48892;BME280;50130;52.150;5.236;2022-11-15T04:25:53;100464.0;;;11.42;98.88
48892;BME280;50130;52.150;5.236;2022-11-15T04:27:30;100465.0;;;11.38;98.8
48892;BME280;50130;52.150;5.236;2022-11-15T04:29:38;100465.0;;;11.32;99.05
48892;BME280;50130;52.150;5.236;2022-11-15T04:31:14;100468.0;;;11.41;98.83
48892;BME280;50130;52.150;5.236;2022-11-15T04:34:27;100459.0;;;11.35;98.81
48892;BME280;50130;52.150;5.236;2022-11-15T04:37:20;100459.0;;;11.39;98.34
48892;BME280;50130;52.150;5.236;2022-11-15T04:38:58;100462.0;;;11.22;99.1
48892;BME280;50130;52.150;5.236;2022-11-15T04:40:34;100463.0;;;11.24;98.89
48892;BME280;50130;52.150;5.236;2022-11-15T04:42:12;100453.0;;;11.28;98.88
48892;BME280;50130;52.150;5.236;2022-11-15T04:43:48;100452.0;;;11.26;99.4
48892;BME280;50130;52.150;5.236;2022-11-15T04:47:01;100450.0;;;11.21;100.0
48892;BME280;50130;52.150;5.236;2022-11-15T04:48:38;100457.0;;;11.42;99.36
48892;BME280;50130;52.150;5.236;2022-11-15T04:50:15;100451.0;;;11.4;99.7
48892;BME280;50130;52.150;5.236;2022-11-15T04:51:52;100455.0;;;11.4;98.89
48892;BME280;50130;52.150;5.236;2022-11-15T04:55:05;100456.0;;;11.36;99.31
48892;BME280;50130;52.150;5.236;2022-11-15T04:56:42;100466.0;;;11.5;98.85
48892;BME280;50130;52.150;5.236;2022-11-15T04:58:18;100466.0;;;11.4;98.71
48892;BME280;50130;52.150;5.236;2022-11-15T05:01:30;100468.0;;;11.39;99.6
48892;BME280;50130;52.150;5.236;2022-11-15T05:04:23;100470.0;;;11.48;99.31
48892;BME280;50130;52.150;5.236;2022-11-15T05:06:00;100464.0;;;11.45;99.14
48892;BME280;50130;52.150;5.236;2022-11-15T05:07:36;100471.0;;;11.57;99.63
48892;BME280;50130;52.150;5.236;2022-11-15T05:09:13;100470.0;;;11.49;99.79
48892;BME280;50130;52.150;5.236;2022-11-15T05:10:49;100468.0;;;11.59;99.43
48892;BME280;50130;52.150;5.236;2022-11-15T05:15:38;100468.0;;;11.51;99.07
48892;BME280;50130;52.150;5.236;2022-11-15T05:17:14;100476.0;;;11.55;99.44
48892;BME280;50130;52.150;5.236;2022-11-15T05:20:27;100474.0;;;11.58;99.59
48892;BME280;50130;52.150;5.236;2022-11-15T05:22:03;100476.0;;;11.59;99.47
48892;BME280;50130;52.150;5.236;2022-11-15T05:23:40;100480.0;;;11.52;99.66
48892;BME280;50130;52.150;5.236;2022-11-15T05:26:53;100477.0;;;11.66;99.59
48892;BME280;50130;52.150;5.236;2022-11-15T05:28:29;100480.0;;;11.79;99.11
48892;BME280;50130;52.150;5.236;2022-11-15T05:30:07;100480.0;;;11.7;99.14
48892;BME280;50130;52.150;5.236;2022-11-15T05:31:43;100478.0;;;11.63;99.89
48892;BME280;50130;52.150;5.236;2022-11-15T05:34:56;100477.0;;;11.71;99.21
48892;BME280;50130;52.150;5.236;2022-11-15T05:36:34;100480.0;;;11.74;99.44
48892;BME280;50130;52.150;5.236;2022-11-15T05:38:13;100484.0;;;11.86;99.18
48892;BME280;50130;52.150;5.236;2022-11-15T05:41:30;100482.0;;;11.78;99.49
48892;BME280;50130;52.150;5.236;2022-11-15T05:43:09;100484.0;;;11.89;99.05
48892;BME280;50130;52.150;5.236;2022-11-15T05:44:48;100487.0;;;11.96;98.87
48892;BME280;50130;52.150;5.236;2022-11-15T05:46:27;100490.0;;;11.91;98.57
48892;BME280;50130;52.150;5.236;2022-11-15T05:49:45;100488.0;;;11.81;99.19
48892;BME280;50130;52.150;5.236;2022-11-15T05:51:23;100488.0;;;11.83;99.52
48892;BME280;50130;52.150;5.236;2022-11-15T05:53:01;100487.0;;;11.89;99.45
48892;BME280;50130;52.150;5.236;2022-11-15T05:54:38;100486.0;;;11.93;99.24
48892;BME280;50130;52.150;5.236;2022-11-15T05:57:52;100484.0;;;11.84;99.38
48892;BME280;50130;52.150;5.236;2022-11-15T05:59:29;100486.0;;;11.98;99.36
48892;BME280;50130;52.150;5.236;2022-11-15T06:01:06;100488.0;;;11.99;99.27
48892;BME280;50130;52.150;5.236;2022-11-15T06:04:18;100493.0;;;11.95;99.42
48892;BME280;50130;52.150;5.236;2022-11-15T06:05:54;100495.0;;;11.94;99.5
48892;BME280;50130;52.150;5.236;2022-11-15T06:07:32;100497.0;;;11.93;99.56
48892;BME280;50130;52.150;5.236;2022-11-15T06:10:45;100497.0;;;12.06;99.25
48892;BME280;50130;52.150;5.236;2022-11-15T06:12:21;100501.0;;;12.07;99.19
48892;BME280;50130;52.150;5.236;2022-11-15T06:13:57;100495.0;;;11.99;99.18
48892;BME280;50130;52.150;5.236;2022-11-15T06:15:33;100494.0;;;11.88;99.78
48892;BME280;50130;52.150;5.236;2022-11-15T06:18:47;100493.0;;;12.03;99.42
48892;BME280;50130;52.150;5.236;2022-11-15T06:20:23;100498.0;;;12.06;99.26
48892;BME280;50130;52.150;5.236;2022-11-15T06:21:59;100499.0;;;11.97;100.0
48892;BME280;50130;52.150;5.236;2022-11-15T06:25:11;100506.0;;;12.03;100.0
48892;BME280;50130;52.150;5.236;2022-11-15T06:26:47;100510.0;;;12.05;99.88
48892;BME280;50130;52.150;5.236;2022-11-15T06:28:24;100507.0;;;12.14;99.73
48892;BME280;50130;52.150;5.236;2022-11-15T06:31:36;100510.0;;;12.12;99.66
48892;BME280;50130;52.150;5.236;2022-11-15T06:33:12;100508.0;;;12.21;99.49
48892;BME280;50130;52.150;5.236;2022-11-15T06:34:48;100510.0;;;12.22;99.61
48892;BME280;50130;52.150;5.236;2022-11-15T06:38:03;100508.0;;;12.26;99.25
48892;BME280;50130;52.150;5.236;2022-11-15T06:39:40;100511.0;;;12.22;99.18
48892;BME280;50130;52.150;5.236;2022-11-15T06:41:17;100507.0;;;12.23;99.36
48892;BME280;50130;52.150;5.236;2022-11-15T06:42:57;100508.0;;;12.18;99.48
48892;BME280;50130;52.150;5.236;2022-11-15T06:46:10;100512.0;;;12.25;99.15
48892;BME280;50130;52.150;5.236;2022-11-15T06:47:47;100508.0;;;12.23;99.21
48892;BME280;50130;52.150;5.236;2022-11-15T06:49:23;100513.0;;;12.26;99.17
48892;BME280;50130;52.150;5.236;2022-11-15T06:52:39;100515.0;;;12.32;99.38
48892;BME280;50130;52.150;5.236;2022-11-15T06:54:15;100514.0;;;12.25;99.37
48892;BME280;50130;52.150;5.236;2022-11-15T06:55:51;100524.0;;;12.22;99.56
48892;BME280;50130;52.150;5.236;2022-11-15T06:57:28;100522.0;;;12.3;99.52
48892;BME280;50130;52.150;5.236;2022-11-15T07:00:41;100530.0;;;12.15;99.77
48892;BME280;50130;52.150;5.236;2022-11-15T07:02:17;100533.0;;;12.33;99.34
48892;BME280;50130;52.150;5.236;2022-11-15T07:03:54;100542.0;;;12.31;99.24
48892;BME280;50130;52.150;5.236;2022-11-15T07:07:07;100535.0;;;12.2;99.74
48892;BME280;50130;52.150;5.236;2022-11-15T07:08:43;100538.0;;;12.33;99.25
48892;BME280;50130;52.150;5.236;2022-11-15T07:10:20;100532.0;;;12.38;98.71
48892;BME280;50130;52.150;5.236;2022-11-15T07:13:33;100531.0;;;12.3;99.17
48892;BME280;50130;52.150;5.236;2022-11-15T07:15:11;100534.0;;;12.37;99.09
48892;BME280;50130;52.150;5.236;2022-11-15T07:16:47;100535.0;;;12.22;99.7
48892;BME280;50130;52.150;5.236;2022-11-15T07:18:23;100533.0;;;12.32;99.43
48892;BME280;50130;52.150;5.236;2022-11-15T07:21:36;100536.0;;;12.37;99.0
48892;BME280;50130;52.150;5.236;2022-11-15T07:23:13;100536.0;;;12.27;99.34
48892;BME280;50130;52.150;5.236;2022-11-15T07:24:49;100539.0;;;12.28;99.65
48892;BME280;50130;52.150;5.236;2022-11-15T07:28:02;100540.0;;;12.23;99.89
48892;BME280;50130;52.150;5.236;2022-11-15T07:29:38;100538.0;;;12.29;99.75
48892;BME280;50130;52.150;5.236;2022-11-15T07:31:14;100545.0;;;12.3;99.64
48892;BME280;50130;52.150;5.236;2022-11-15T07:34:30;100543.0;;;12.33;99.48
48892;BME280;50130;52.150;5.236;2022-11-15T07:36:08;100547.0;;;12.36;99.37
48892;BME280;50130;52.150;5.236;2022-11-15T07:37:44;100543.0;;;12.41;99.23
48892;BME280;50130;52.150;5.236;2022-11-15T07:39:29;100543.0;;;12.33;99.4
48892;BME280;50130;52.150;5.236;2022-11-15T07:42:59;100543.0;;;12.32;99.28
48892;BME280;50130;52.150;5.236;2022-11-15T07:44:35;100540.0;;;12.38;99.43
48892;BME280;50130;52.150;5.236;2022-11-15T07:46:11;100531.0;;;12.37;99.14
48892;BME280;50130;52.150;5.236;2022-11-15T07:47:48;100527.0;;;12.34;99.37
48892;BME280;50130;52.150;5.236;2022-11-15T07:51:01;100523.0;;;12.38;98.92
48892;BME280;50130;52.150;5.236;2022-11-15T07:52:38;100523.0;;;12.39;98.85
48892;BME280;50130;52.150;5.236;2022-11-15T07:54:14;100532.0;;;12.33;98.92
48892;BME280;50130;52.150;5.236;2022-11-15T07:57:26;100534.0;;;12.24;99.04
48892;BME280;50130;52.150;5.236;2022-11-15T07:59:03;100538.0;;;12.28;99.0
48892;BME280;50130;52.150;5.236;2022-11-15T08:00:39;100534.0;;;12.29;99.16
48892;BME280;50130;52.150;5.236;2022-11-15T08:02:17;100532.0;;;12.23;99.02
48892;BME280;50130;52.150;5.236;2022-11-15T08:05:30;100530.0;;;12.2;99.33
48892;BME280;50130;52.150;5.236;2022-11-15T08:07:06;100521.0;;;12.26;99.09
48892;BME280;50130;52.150;5.236;2022-11-15T08:08:42;100525.0;;;12.31;99.22
48892;BME280;50130;52.150;5.236;2022-11-15T08:11:56;100523.0;;;12.31;99.01
48892;BME280;50130;52.150;5.236;2022-11-15T08:13:32;100526.0;;;12.4;98.79
48892;BME280;50130;52.150;5.236;2022-11-15T08:15:09;100522.0;;;12.39;98.58
48892;BME280;50130;52.150;5.236;2022-11-15T08:18:21;100521.0;;;12.36;98.18
48892;BME280;50130;52.150;5.236;2022-11-15T08:19:58;100521.0;;;12.42;98.5
48892;BME280;50130;52.150;5.236;2022-11-15T08:21:35;100522.0;;;12.43;98.49
48892;BME280;50130;52.150;5.236;2022-11-15T08:23:11;100525.0;;;12.47;98.12
48892;BME280;50130;52.150;5.236;2022-11-15T08:26:26;100525.0;;;12.49;97.94
48892;BME280;50130;52.150;5.236;2022-11-15T08:28:06;100518.0;;;12.34;98.81
48892;BME280;50130;52.150;5.236;2022-11-15T08:29:43;100521.0;;;12.46;98.74
48892;BME280;50130;52.150;5.236;2022-11-15T08:32:57;100522.0;;;12.5;98.67
48892;BME280;50130;52.150;5.236;2022-11-15T08:34:34;100519.0;;;12.45;98.57
48892;BME280;50130;52.150;5.236;2022-11-15T08:36:12;100509.0;;;12.46;98.56
48892;BME280;50130;52.150;5.236;2022-11-15T08:37:52;100505.0;;;12.48;98.23
48892;BME280;50130;52.150;5.236;2022-11-15T08:41:06;100507.0;;;12.64;97.76
48892;BME280;50130;52.150;5.236;2022-11-15T08:42:42;100503.0;;;12.68;96.88
48892;BME280;50130;52.150;5.236;2022-11-15T08:44:21;100498.0;;;12.59;97.14
48892;BME280;50130;52.150;5.236;2022-11-15T08:47:34;100499.0;;;12.56;97.23
48892;BME280;50130;52.150;5.236;2022-11-15T08:49:11;100489.0;;;12.58;97.07
48892;BME280;50130;52.150;5.236;2022-11-15T08:50:47;100486.0;;;12.58;96.69
48892;BME280;50130;52.150;5.236;2022-11-15T08:52:23;100484.0;;;12.58;96.88
48892;BME280;50130;52.150;5.236;2022-11-15T08:55:36;100486.0;;;12.55;96.68
48892;BME280;50130;52.150;5.236;2022-11-15T08:57:14;100487.0;;;12.57;96.85
48892;BME280;50130;52.150;5.236;2022-11-15T08:58:51;100493.0;;;12.65;96.71
48892;BME280;50130;52.150;5.236;2022-11-15T09:02:04;100496.0;;;12.65;96.72
48892;BME280;50130;52.150;5.236;2022-11-15T09:03:40;100502.0;;;12.55;97.13
48892;BME280;50130;52.150;5.236;2022-11-15T09:05:18;100505.0;;;12.54;97.31
48892;BME280;50130;52.150;5.236;2022-11-15T09:08:31;100501.0;;;12.56;97.12
48892;BME280;50130;52.150;5.236;2022-11-15T09:10:08;100500.0;;;12.61;97.17
48892;BME280;50130;52.150;5.236;2022-11-15T09:11:44;100498.0;;;12.71;97.01
48892;BME280;50130;52.150;5.236;2022-11-15T09:13:20;100496.0;;;12.66;96.55
48892;BME280;50130;52.150;5.236;2022-11-15T09:18:10;100488.0;;;12.71;96.18
48892;BME280;50130;52.150;5.236;2022-11-15T09:19:45;100487.0;;;12.73;95.74
48892;BME280;50130;52.150;5.236;2022-11-15T09:22:59;100492.0;;;12.87;95.72
48892;BME280;50130;52.150;5.236;2022-11-15T09:24:35;100490.0;;;12.89;95.48
48892;BME280;50130;52.150;5.236;2022-11-15T09:26:12;100491.0;;;12.9;95.2
48892;BME280;50130;52.150;5.236;2022-11-15T09:29:25;100487.0;;;13.01;94.54
48892;BME280;50130;52.150;5.236;2022-11-15T09:31:03;100481.0;;;12.99;93.97
48892;BME280;50130;52.150;5.236;2022-11-15T09:32:41;100481.0;;;12.95;93.82
48892;BME280;50130;52.150;5.236;2022-11-15T09:34:18;100480.0;;;12.99;93.49
48892;BME280;50130;52.150;5.236;2022-11-15T09:37:35;100480.0;;;12.89;93.3
48892;BME280;50130;52.150;5.236;2022-11-15T09:39:11;100486.0;;;12.96;93.49
48892;BME280;50130;52.150;5.236;2022-11-15T09:40:51;100474.0;;;12.91;92.99
48892;BME280;50130;52.150;5.236;2022-11-15T09:42:52;100468.0;;;12.91;93.19
48892;BME280;50130;52.150;5.236;2022-11-15T09:46:31;100472.0;;;12.95;93.23
48892;BME280;50130;52.150;5.236;2022-11-15T09:48:31;100471.0;;;12.99;92.59
48892;BME280;50130;52.150;5.236;2022-11-15T09:50:32;100474.0;;;13.06;92.26
48892;BME280;50130;52.150;5.236;2022-11-15T09:52:10;100476.0;;;13.06;91.78
48892;BME280;50130;52.150;5.236;2022-11-15T09:53:51;100483.0;;;13.02;90.84
48892;BME280;50130;52.150;5.236;2022-11-15T09:55:36;100480.0;;;13.1;90.72
48892;BME280;50130;52.150;5.236;2022-11-15T09:57:38;100480.0;;;13.18;90.72
48892;BME280;50130;52.150;5.236;2022-11-15T10:01:43;100475.0;;;13.1;91.29
48892;BME280;50130;52.150;5.236;2022-11-15T10:05:11;100475.0;;;13.18;90.92
48892;BME280;50130;52.150;5.236;2022-11-15T10:06:56;100477.0;;;13.15;90.58
48892;BME280;50130;52.150;5.236;2022-11-15T10:08:52;100476.0;;;13.14;89.63
48892;BME280;50130;52.150;5.236;2022-11-15T10:10:36;100471.0;;;13.1;89.31
48892;BME280;50130;52.150;5.236;2022-11-15T10:12:15;100462.0;;;13.19;88.71
48892;BME280;50130;52.150;5.236;2022-11-15T10:15:35;100460.0;;;13.33;88.72
48892;BME280;50130;52.150;5.236;2022-11-15T10:17:25;100462.0;;;13.18;88.93
48892;BME280;50130;52.150;5.236;2022-11-15T10:20:15;100465.0;;;13.17;87.58
48892;BME280;50130;52.150;5.236;2022-11-15T10:22:02;100463.0;;;13.19;87.38
48892;BME280;50130;52.150;5.236;2022-11-15T10:23:44;100464.0;;;13.28;88.07
48892;BME280;50130;52.150;5.236;2022-11-15T10:25:22;100451.0;;;13.21;87.29
48892;BME280;50130;52.150;5.236;2022-11-15T10:27:00;100456.0;;;13.25;87.63
48892;BME280;50130;52.150;5.236;2022-11-15T10:28:37;100448.0;;;13.14;86.89
48892;BME280;50130;52.150;5.236;2022-11-15T10:31:53;100443.0;;;13.14;86.25
48892;BME280;50130;52.150;5.236;2022-11-15T10:33:31;100450.0;;;13.2;86.09
48892;BME280;50130;52.150;5.236;2022-11-15T10:35:17;100445.0;;;13.38;85.35
48892;BME280;50130;52.150;5.236;2022-11-15T10:37:03;100438.0;;;13.27;85.2
48892;BME280;50130;52.150;5.236;2022-11-15T10:40:29;100435.0;;;13.4;85.76
48892;BME280;50130;52.150;5.236;2022-11-15T10:42:17;100430.0;;;13.42;85.44
48892;BME280;50130;52.150;5.236;2022-11-15T10:44:28;100427.0;;;13.45;85.42
48892;BME280;50130;52.150;5.236;2022-11-15T10:46:18;100428.0;;;13.52;84.56
48892;BME280;50130;52.150;5.236;2022-11-15T10:48:20;100410.0;;;13.43;83.66
48892;BME280;50130;52.150;5.236;2022-11-15T10:50:05;100407.0;;;13.43;83.71
48892;BME280;50130;52.150;5.236;2022-11-15T10:51:45;100417.0;;;13.42;83.18
48892;BME280;50130;52.150;5.236;2022-11-15T10:55:24;100400.0;;;13.44;83.72
48892;BME280;50130;52.150;5.236;2022-11-15T10:57:05;100399.0;;;13.52;83.24
48892;BME280;50130;52.150;5.236;2022-11-15T10:58:50;100392.0;;;13.57;82.68
48892;BME280;50130;52.150;5.236;2022-11-15T11:00:30;100394.0;;;13.67;82.9
48892;BME280;50130;52.150;5.236;2022-11-15T11:02:27;100399.0;;;13.55;82.2
48892;BME280;50130;52.150;5.236;2022-11-15T11:04:11;100398.0;;;13.72;81.36
48892;BME280;50130;52.150;5.236;2022-11-15T11:07:25;100394.0;;;13.74;80.97
48892;BME280;50130;52.150;5.236;2022-11-15T11:09:05;100394.0;;;13.75;80.36
48892;BME280;50130;52.150;5.236;2022-11-15T11:10:51;100385.0;;;13.75;79.25
48892;BME280;50130;52.150;5.236;2022-11-15T11:14:12;100382.0;;;13.9;80.74
48892;BME280;50130;52.150;5.236;2022-11-15T11:15:56;100377.0;;;13.94;80.37
48892;BME280;50130;52.150;5.236;2022-11-15T11:17:54;100383.0;;;13.99;79.36
48892;BME280;50130;52.150;5.236;2022-11-15T11:19:46;100381.0;;;14.13;79.31